createdAt,value
2023-05-05T00:00:03.092Z,11.3
2023-05-05T00:02:04.629Z,11.1
2023-05-05T00:04:04.224Z,11.1
2023-05-05T00:06:02.829Z,11.2
2023-05-05T00:08:04.684Z,11.1
2023-05-05T00:10:03.770Z,10.9
2023-05-05T00:12:04.195Z,10.8
2023-05-05T00:14:04.284Z,10.5
2023-05-05T00:16:04.826Z,10.6
2023-05-05T00:18:04.204Z,10.9
2023-05-05T00:20:02.518Z,11
2023-05-05T00:22:04.000Z,10.8
2023-05-05T00:24:04.230Z,10.7
2023-05-05T00:26:03.219Z,10.8
2023-05-05T00:28:03.264Z,10.9
2023-05-05T00:30:04.090Z,10.9
2023-05-05T00:32:04.487Z,10.9
2023-05-05T00:34:03.770Z,11
2023-05-05T00:36:03.790Z,10.9
2023-05-05T00:38:03.864Z,10.9
2023-05-05T00:40:04.110Z,10.8
2023-05-05T00:42:04.244Z,10.8
2023-05-05T00:44:04.289Z,10.7
2023-05-05T00:46:04.478Z,10.6
2023-05-05T00:48:04.199Z,10.6
2023-05-05T00:50:04.510Z,10.6
2023-05-05T00:52:03.797Z,10.4
2023-05-05T00:54:04.670Z,10.6
2023-05-05T00:56:04.287Z,10.4
2023-05-05T00:58:04.144Z,10.4
2023-05-05T01:00:04.817Z,10.3
2023-05-05T01:02:04.613Z,10.3
2023-05-05T01:04:04.207Z,10.5
2023-05-05T01:08:04.652Z,10.5
2023-05-05T01:10:15.523Z,10.5
2023-05-05T01:12:04.442Z,10.6
2023-05-05T01:14:04.256Z,10.7
2023-05-05T01:16:04.269Z,10.7
2023-05-05T01:18:02.441Z,10.8
2023-05-05T01:22:02.501Z,10.7
2023-05-05T01:24:02.400Z,10.7
2023-05-05T01:26:02.905Z,10.6
2023-05-05T01:28:02.452Z,10.7
2023-05-05T01:30:04.129Z,10.6
2023-05-05T01:32:02.984Z,10.7
2023-05-05T01:34:04.243Z,10.6
2023-05-05T01:36:03.700Z,10.5
2023-05-05T01:38:04.174Z,10.4
2023-05-05T01:40:03.255Z,10
2023-05-05T01:42:03.663Z,9.9
2023-05-05T01:44:04.079Z,9.9
2023-05-05T01:46:04.111Z,9.8
2023-05-05T01:48:04.238Z,9.9
2023-05-05T01:50:03.045Z,10
2023-05-05T01:52:03.656Z,10.1
2023-05-05T01:54:04.954Z,10.1
2023-05-05T01:56:03.716Z,10.3
2023-05-05T01:58:03.318Z,10.2
2023-05-05T02:00:03.861Z,10.1
2023-05-05T02:02:02.697Z,10
2023-05-05T02:04:04.421Z,9.9
2023-05-05T02:06:02.462Z,9.7
2023-05-05T02:08:04.554Z,9.8
2023-05-05T02:10:03.985Z,9.8
2023-05-05T02:12:03.227Z,9.7
2023-05-05T02:14:03.549Z,9.6
2023-05-05T02:16:02.918Z,9.4
2023-05-05T02:18:02.449Z,9.4
2023-05-05T02:20:04.692Z,9.4
2023-05-05T02:22:02.846Z,9.3
2023-05-05T02:24:04.332Z,9.4
2023-05-05T02:26:03.792Z,9.3
2023-05-05T02:28:04.054Z,9.4
2023-05-05T02:30:02.750Z,9.4
2023-05-05T02:32:03.462Z,9.3
2023-05-05T02:34:02.483Z,9.2
2023-05-05T02:36:04.302Z,9
2023-05-05T02:40:03.370Z,9.1
2023-05-05T02:42:03.813Z,9.1
2023-05-05T02:44:04.227Z,9.1
2023-05-05T02:46:03.719Z,9
2023-05-05T02:48:04.368Z,9
2023-05-05T02:50:04.109Z,9
2023-05-05T02:52:03.337Z,9.1
2023-05-05T02:54:03.456Z,9.2
2023-05-05T02:56:04.379Z,9.1
2023-05-05T02:58:04.373Z,9.2
2023-05-05T03:00:03.225Z,9.1
2023-05-05T03:02:03.421Z,9.2
2023-05-05T03:04:05.089Z,9.2
2023-05-05T03:06:02.442Z,9.1
2023-05-05T03:08:04.335Z,9
2023-05-05T03:10:03.363Z,9.1
2023-05-05T03:12:05.371Z,9.1
2023-05-05T03:14:02.588Z,9.2
2023-05-05T03:16:02.909Z,9.3
2023-05-05T03:18:05.217Z,9.4
2023-05-05T03:20:03.874Z,9.3
2023-05-05T03:22:02.400Z,9.1
2023-05-05T03:24:04.234Z,9
2023-05-05T03:26:03.356Z,9
2023-05-05T03:28:04.917Z,8.8
2023-05-05T03:30:03.909Z,9.1
2023-05-05T03:32:03.318Z,9.1
2023-05-05T03:34:04.433Z,9
2023-05-05T03:36:03.701Z,8.8
2023-05-05T03:38:03.076Z,8.8
2023-05-05T03:40:03.306Z,8.8
2023-05-05T03:42:03.264Z,8.8
2023-05-05T03:44:03.622Z,8.8
2023-05-05T03:46:03.834Z,8.8
2023-05-05T03:48:04.284Z,8.8
2023-05-05T03:50:04.234Z,9
2023-05-05T03:52:04.073Z,9
2023-05-05T03:54:04.760Z,8.9
2023-05-05T03:56:04.953Z,9
2023-05-05T03:58:02.342Z,8.9
2023-05-05T04:00:04.752Z,9
2023-05-05T04:02:03.698Z,8.8
2023-05-05T04:04:03.403Z,8.7
2023-05-05T04:06:04.350Z,8.7
2023-05-05T04:08:04.198Z,8.6
2023-05-05T04:10:03.350Z,8.7
2023-05-05T04:12:02.439Z,8.7
2023-05-05T04:14:04.247Z,8.8
2023-05-05T04:16:03.394Z,8.9
2023-05-05T04:18:04.998Z,9.1
2023-05-05T04:20:04.588Z,9.3
2023-05-05T04:24:04.618Z,9.6
2023-05-05T04:26:03.301Z,9.6
2023-05-05T04:28:04.554Z,9.7
2023-05-05T04:30:05.128Z,9.8
2023-05-05T04:32:02.463Z,9.8
2023-05-05T04:34:04.290Z,9.9
2023-05-05T04:36:03.149Z,10.1
2023-05-05T04:38:03.402Z,10
2023-05-05T04:40:03.881Z,10
2023-05-05T04:42:04.283Z,10.1
2023-05-05T04:44:03.787Z,10.1
2023-05-05T04:48:03.882Z,10
2023-05-05T04:50:03.444Z,9.8
2023-05-05T04:52:04.489Z,10
2023-05-05T04:54:04.715Z,10
2023-05-05T04:56:02.369Z,10.2
2023-05-05T04:58:03.672Z,10.2
2023-05-05T05:00:03.597Z,10.5
2023-05-05T05:02:02.505Z,10.5
2023-05-05T05:04:02.600Z,10.6
2023-05-05T05:06:03.489Z,10.5
2023-05-05T05:08:03.832Z,10.6
2023-05-05T05:10:03.909Z,10.6
2023-05-05T05:12:03.817Z,10.7
2023-05-05T05:14:04.234Z,10.6
2023-05-05T05:16:03.644Z,10.6
2023-05-05T05:18:04.280Z,10.8
2023-05-05T05:20:05.098Z,10.9
2023-05-05T05:22:03.956Z,11.1
2023-05-05T05:26:04.385Z,11.2
2023-05-05T05:30:04.221Z,11.5
2023-05-05T05:32:02.431Z,11.8
2023-05-05T05:34:04.931Z,11.9
2023-05-05T05:36:04.221Z,12
2023-05-05T05:38:04.308Z,12.1
2023-05-05T05:40:03.727Z,12.7
2023-05-05T05:42:02.468Z,15
2023-05-05T05:44:02.432Z,15.3
2023-05-05T05:46:03.836Z,15.6
2023-05-05T05:48:02.754Z,15.6
2023-05-05T05:50:02.521Z,15.4
2023-05-05T05:52:04.423Z,15.4
2023-05-05T05:54:03.634Z,15.4
2023-05-05T05:56:02.569Z,15.4
2023-05-05T05:58:05.069Z,15.5
2023-05-05T06:02:03.566Z,15.8
2023-05-05T06:04:03.385Z,15.9
2023-05-05T06:06:03.314Z,16
2023-05-05T06:08:05.187Z,16.2
2023-05-05T06:10:14.936Z,16.3
2023-05-05T06:12:03.336Z,16.4
2023-05-05T06:14:03.779Z,16.5
2023-05-05T06:16:04.191Z,16.5
2023-05-05T06:18:03.035Z,16.6
2023-05-05T06:22:02.480Z,16.7
2023-05-05T06:24:03.854Z,16.7
2023-05-05T06:26:04.231Z,16.8
2023-05-05T06:28:02.495Z,16.9
2023-05-05T06:30:04.562Z,17
2023-05-05T06:32:03.476Z,17
2023-05-05T06:34:03.313Z,17
2023-05-05T06:36:04.354Z,17.1
2023-05-05T06:38:04.198Z,17.2
2023-05-05T06:40:02.594Z,17.2
2023-05-05T06:42:02.556Z,17.3
2023-05-05T06:44:02.625Z,17.4
2023-05-05T06:46:03.363Z,17.3
2023-05-05T06:48:04.201Z,17.3
2023-05-05T06:50:04.473Z,17.5
2023-05-05T06:52:03.303Z,17.5
2023-05-05T06:54:04.784Z,17.4
2023-05-05T06:56:03.400Z,17.6
2023-05-05T06:58:04.796Z,17.6
2023-05-05T07:00:02.327Z,17.7
2023-05-05T07:02:02.579Z,17.7
2023-05-05T07:06:03.850Z,17.6
2023-05-05T07:08:02.410Z,17.6
2023-05-05T07:10:04.438Z,17.7
2023-05-05T07:14:03.629Z,17.9
2023-05-05T07:16:02.547Z,17.9
2023-05-05T07:18:03.001Z,17.8
2023-05-05T07:20:04.315Z,18
2023-05-05T07:22:04.111Z,18
2023-05-05T07:24:03.396Z,18.1
2023-05-05T07:26:03.055Z,18.2
2023-05-05T07:28:03.830Z,18
2023-05-05T07:30:07.998Z,17.9
2023-05-05T07:32:04.838Z,17.8
2023-05-05T07:34:04.109Z,17.8
2023-05-05T07:36:04.325Z,18
2023-05-05T07:38:02.880Z,18.2
2023-05-05T07:40:05.115Z,18.2
2023-05-05T07:42:03.920Z,18.3
2023-05-05T07:44:04.658Z,18.6
2023-05-05T07:46:04.232Z,18.8
2023-05-05T07:48:05.220Z,18.8
2023-05-05T07:50:05.600Z,18.7
2023-05-05T07:52:03.875Z,18.7
2023-05-05T07:54:04.872Z,18.8
2023-05-05T07:56:04.854Z,18.7
2023-05-05T07:58:04.165Z,18.7
2023-05-05T08:00:04.668Z,18.5
2023-05-05T08:02:04.383Z,18.6
2023-05-05T08:04:03.431Z,18.7
2023-05-05T08:06:03.833Z,19
2023-05-05T08:08:02.644Z,19.1
2023-05-05T08:10:04.910Z,19
2023-05-05T08:12:04.415Z,19.1
2023-05-05T08:14:02.486Z,19.2
2023-05-05T08:16:03.116Z,19.1
2023-05-05T08:18:05.207Z,19.4
2023-05-05T08:20:04.195Z,19.5
2023-05-05T08:22:03.426Z,19.6
2023-05-05T08:24:03.326Z,19.4
2023-05-05T08:26:03.820Z,19.4
2023-05-05T08:28:04.025Z,19.2
2023-05-05T08:30:02.558Z,19.1
2023-05-05T08:32:04.114Z,18.9
2023-05-05T08:34:04.410Z,18.9
2023-05-05T08:36:03.307Z,19
2023-05-05T08:38:03.772Z,19.2
2023-05-05T08:40:04.137Z,19.3
2023-05-05T08:42:02.448Z,19.3
2023-05-05T08:44:04.295Z,19.3
2023-05-05T08:46:04.347Z,19.6
2023-05-05T08:48:03.778Z,19.6
2023-05-05T08:50:04.616Z,19.7
2023-05-05T08:52:03.007Z,19.7
2023-05-05T08:54:04.027Z,19.8
2023-05-05T08:56:02.448Z,19.9
2023-05-05T08:58:04.728Z,19.8
2023-05-05T09:00:03.743Z,19.6
2023-05-05T09:02:03.838Z,19.7
2023-05-05T09:06:02.562Z,20
2023-05-05T09:08:03.857Z,20.1
2023-05-05T09:10:04.741Z,20.2
2023-05-05T09:12:03.412Z,20.2
2023-05-05T09:14:03.426Z,20.2
2023-05-05T09:16:04.449Z,20.1
2023-05-05T09:18:03.431Z,20.2
2023-05-05T09:20:04.329Z,20.1
2023-05-05T09:22:03.527Z,20.1
2023-05-05T09:24:08.061Z,20.1
2023-05-05T09:26:04.339Z,20.1
2023-05-05T09:28:04.053Z,20.2
2023-05-05T09:30:02.965Z,20.3
2023-05-05T09:32:04.015Z,20.4
2023-05-05T09:34:02.618Z,20.3
2023-05-05T09:36:04.240Z,20.3
2023-05-05T09:38:03.616Z,20.4
2023-05-05T09:40:02.516Z,20.4
2023-05-05T09:42:02.964Z,20.5
2023-05-05T09:44:02.960Z,20.5
2023-05-05T09:46:04.347Z,20.5
2023-05-05T09:48:04.407Z,20.5
2023-05-05T09:50:02.920Z,20.5
2023-05-05T09:52:03.859Z,20.5
2023-05-05T09:54:04.575Z,20.7
2023-05-05T09:56:04.300Z,20.8
2023-05-05T09:58:04.241Z,20.8
2023-05-05T10:00:02.748Z,20.8
2023-05-05T10:02:03.095Z,20.8
2023-05-05T10:04:02.482Z,20.8
2023-05-05T10:06:02.430Z,20.8
2023-05-05T10:08:03.752Z,20.8
2023-05-05T10:10:03.933Z,20.8
2023-05-05T10:12:02.882Z,20.7
2023-05-05T10:14:04.208Z,20.7
2023-05-05T10:16:04.440Z,20.7
2023-05-05T10:18:07.963Z,20.7
2023-05-05T10:20:03.905Z,20.7
2023-05-05T10:22:04.391Z,20.7
2023-05-05T10:24:03.948Z,20.8
2023-05-05T10:26:04.413Z,20.8
2023-05-05T10:28:03.072Z,20.8
2023-05-05T10:30:02.595Z,20.8
2023-05-05T10:34:04.058Z,20.8
2023-05-05T10:36:02.652Z,20.8
2023-05-05T10:38:02.588Z,20.8
2023-05-05T10:40:02.597Z,20.8
2023-05-05T10:42:04.408Z,20.8
2023-05-05T10:44:04.853Z,20.9
2023-05-05T10:46:04.287Z,20.9
2023-05-05T10:48:03.562Z,20.9
2023-05-05T10:50:04.956Z,20.9
2023-05-05T10:52:02.178Z,20.9
2023-05-05T10:54:03.322Z,21
2023-05-05T10:56:03.933Z,21.1
2023-05-05T10:58:04.183Z,21.1
2023-05-05T11:00:04.732Z,21
2023-05-05T11:02:03.804Z,21
2023-05-05T11:04:05.164Z,21
2023-05-05T11:06:04.348Z,21
2023-05-05T11:08:03.442Z,21.2
2023-05-05T11:10:02.738Z,21.2
2023-05-05T11:12:04.314Z,21.2
2023-05-05T11:14:04.475Z,21.3
2023-05-05T11:16:02.996Z,21.2
2023-05-05T11:18:05.961Z,21.2
2023-05-05T11:20:04.312Z,21.2
2023-05-05T11:22:03.486Z,21.3
2023-05-05T11:24:03.135Z,21.3
2023-05-05T11:26:03.954Z,21.3
2023-05-05T11:28:04.369Z,21.4
2023-05-05T11:30:04.431Z,21.3
2023-05-05T11:32:03.999Z,21.3
2023-05-05T11:34:04.644Z,21.4
2023-05-05T11:36:06.348Z,21.4
2023-05-05T11:38:04.347Z,21.4
2023-05-05T11:40:03.254Z,21.4
2023-05-05T11:42:06.664Z,21.4
2023-05-05T11:44:04.256Z,21.3
2023-05-05T11:46:03.105Z,21.2
2023-05-05T11:48:04.953Z,21.3
2023-05-05T11:50:04.769Z,21.4
2023-05-05T11:52:03.723Z,21.4
2023-05-05T11:54:04.433Z,21.4
2023-05-05T11:56:04.761Z,21.5
2023-05-05T11:58:03.826Z,21.5
2023-05-05T12:00:04.698Z,21.5
2023-05-05T12:02:02.223Z,21.4
2023-05-05T12:04:04.249Z,21.4
2023-05-05T12:06:03.905Z,21.4
2023-05-05T12:08:02.263Z,21.4
2023-05-05T12:10:02.580Z,21.5
2023-05-05T12:12:04.539Z,21.6
2023-05-05T12:14:03.541Z,21.6
2023-05-05T12:16:04.278Z,21.5
2023-05-05T12:18:04.061Z,21.6
2023-05-05T12:20:03.928Z,21.5
2023-05-05T12:22:03.356Z,21.5
2023-05-05T12:24:03.894Z,21.5
2023-05-05T12:26:03.431Z,21.5
2023-05-05T12:28:04.728Z,21.6
2023-05-05T12:30:04.470Z,21.6
2023-05-05T12:32:04.176Z,21.6
2023-05-05T12:34:03.909Z,21.7
2023-05-05T12:36:03.814Z,21.7
2023-05-05T12:38:04.490Z,21.7
2023-05-05T12:40:03.737Z,21.7
2023-05-05T12:42:04.691Z,21.7
2023-05-05T12:44:04.712Z,21.7
2023-05-05T12:46:03.908Z,21.7
2023-05-05T12:48:04.498Z,21.7
2023-05-05T12:50:04.755Z,21.7
2023-05-05T12:52:03.505Z,21.7
2023-05-05T12:54:04.514Z,21.7
2023-05-05T12:56:04.070Z,21.7
2023-05-05T12:58:03.699Z,21.7
2023-05-05T13:00:03.967Z,21.7
2023-05-05T13:02:04.602Z,21.7
2023-05-05T13:04:04.463Z,21.7
2023-05-05T13:06:04.152Z,21.7
2023-05-05T13:08:02.876Z,21.7
2023-05-05T13:10:03.067Z,21.8
2023-05-05T13:12:05.160Z,21.8
2023-05-05T13:16:02.623Z,21.8
2023-05-05T13:18:04.880Z,21.8
2023-05-05T13:20:04.232Z,21.8
2023-05-05T13:22:04.428Z,21.8
2023-05-05T13:24:18.853Z,21.8
2023-05-05T13:26:02.669Z,21.8
2023-05-05T13:28:04.493Z,21.8
2023-05-05T13:30:03.488Z,21.8
2023-05-05T13:32:04.900Z,21.8
2023-05-05T13:34:04.694Z,21.8
2023-05-05T13:36:04.141Z,21.8
2023-05-05T13:38:04.632Z,21.8
2023-05-05T13:42:05.746Z,21.7
2023-05-05T13:44:02.840Z,21.7
2023-05-05T13:46:16.432Z,21.6
2023-05-05T13:48:04.768Z,21.6
2023-05-05T13:50:05.103Z,21.6
2023-05-05T13:52:04.611Z,21.6
2023-05-05T13:54:04.684Z,21.7
2023-05-05T13:56:02.836Z,21.7
2023-05-05T13:58:02.825Z,21.6
2023-05-05T14:00:04.430Z,21.6
2023-05-05T14:02:04.770Z,21.6
2023-05-05T14:04:05.571Z,21.6
2023-05-05T14:06:04.180Z,21.6
2023-05-05T14:08:02.838Z,21.6
2023-05-05T14:10:05.503Z,21.6
2023-05-05T14:12:03.555Z,21.6
2023-05-05T14:14:05.277Z,21.6
2023-05-05T14:16:05.095Z,21.6
2023-05-05T14:18:05.199Z,21.6
2023-05-05T14:20:05.051Z,21.6
2023-05-05T14:22:05.398Z,21.6
2023-05-05T14:24:05.189Z,21.5
2023-05-05T14:26:04.665Z,21.5
2023-05-05T14:28:03.311Z,21.4
2023-05-05T14:30:04.662Z,21.4
2023-05-05T14:32:04.653Z,21.4
2023-05-05T14:34:04.640Z,21.4
2023-05-05T14:36:04.156Z,21.3
2023-05-05T14:38:03.711Z,21.3
2023-05-05T14:40:05.712Z,21.3
2023-05-05T14:42:05.479Z,21.3
2023-05-05T14:44:04.663Z,21.3
2023-05-05T14:46:03.699Z,21.3
2023-05-05T14:48:04.132Z,21.3
2023-05-05T14:50:05.119Z,21.3
2023-05-05T14:52:04.664Z,21.3
2023-05-05T14:54:07.544Z,21.4
2023-05-05T14:56:04.730Z,21.4
2023-05-05T14:58:04.698Z,21.4
2023-05-05T15:00:04.745Z,21.4
2023-05-05T15:02:04.400Z,21.4
2023-05-05T15:04:05.173Z,21.3
2023-05-05T15:06:05.162Z,21.3
2023-05-05T15:10:05.093Z,21.3
2023-05-05T15:12:02.803Z,21.3
2023-05-05T15:14:04.077Z,21.3
2023-05-05T15:16:05.102Z,21.3
2023-05-05T15:18:04.351Z,21.4
2023-05-05T15:20:04.812Z,21.4
2023-05-05T15:22:03.884Z,21.5
2023-05-05T15:24:05.578Z,21.5
2023-05-05T15:26:05.508Z,21.5
2023-05-05T15:28:05.422Z,21.6
2023-05-05T15:30:04.501Z,21.6
2023-05-05T15:32:03.359Z,21.5
2023-05-05T15:34:05.280Z,21.6
2023-05-05T15:36:04.949Z,21.5
2023-05-05T15:38:05.073Z,21.5
2023-05-05T15:40:03.953Z,21.4
2023-05-05T15:42:05.709Z,21.4
2023-05-05T15:44:04.582Z,21.4
2023-05-05T15:46:05.069Z,21.3
2023-05-05T15:48:04.425Z,21.2
2023-05-05T15:50:03.329Z,21.2
2023-05-05T15:52:36.197Z,21.2
2023-05-05T15:54:06.014Z,21.1
2023-05-05T15:56:05.106Z,21.1
2023-05-05T15:58:05.523Z,21.1
2023-05-05T16:00:05.653Z,21.1
2023-05-05T16:02:03.462Z,21
2023-05-05T16:04:05.228Z,21
2023-05-05T16:06:03.884Z,21
2023-05-05T16:10:05.573Z,21
2023-05-05T16:12:04.060Z,20.9
2023-05-05T16:14:05.136Z,20.8
2023-05-05T16:16:04.652Z,20.8
2023-05-05T16:18:05.338Z,20.8
2023-05-05T16:20:05.089Z,20.7
2023-05-05T16:24:03.935Z,20.7
2023-05-05T16:26:03.917Z,20.6
2023-05-05T16:28:04.185Z,20.6
2023-05-05T16:30:05.288Z,20.6
2023-05-05T16:32:04.274Z,20.5
2023-05-05T16:34:03.756Z,20.2
2023-05-05T16:36:04.150Z,20.2
2023-05-05T16:38:02.848Z,20.1
2023-05-05T16:40:05.286Z,20
2023-05-05T16:42:03.318Z,20.1
2023-05-05T16:44:02.863Z,20.1
2023-05-05T16:46:05.081Z,20.2
2023-05-05T16:50:03.194Z,19.9
2023-05-05T16:52:05.710Z,19.7
2023-05-05T16:54:03.858Z,19.7
2023-05-05T16:56:03.035Z,19.6
2023-05-05T16:58:02.817Z,19.6
2023-05-05T17:00:02.978Z,19.7
2023-05-05T17:02:05.165Z,19.6
2023-05-05T17:04:05.686Z,19.3
2023-05-05T17:06:04.229Z,19
2023-05-05T17:08:04.271Z,18.8
2023-05-05T17:10:04.548Z,18.6
2023-05-05T17:12:05.114Z,18.5
2023-05-05T17:14:03.389Z,18.5
2023-05-05T17:16:04.216Z,18.3
2023-05-05T17:18:04.667Z,18.2
2023-05-05T17:20:05.525Z,18.1
2023-05-05T17:22:04.268Z,18.1
2023-05-05T17:24:04.566Z,18.2
2023-05-05T17:26:05.038Z,18.2
2023-05-05T17:30:02.646Z,18.1
2023-05-05T17:32:05.011Z,17.8
2023-05-05T17:34:05.408Z,17.8
2023-05-05T17:36:05.085Z,18
2023-05-05T17:38:04.803Z,18.1
2023-05-05T17:40:05.161Z,17.9
2023-05-05T17:42:05.174Z,17.9
2023-05-05T17:44:04.361Z,17.8
2023-05-05T17:46:04.302Z,17.8
2023-05-05T17:48:03.911Z,17.6
2023-05-05T17:50:03.471Z,17.6
2023-05-05T17:52:04.725Z,17.6
2023-05-05T17:54:03.494Z,17.7
2023-05-05T17:56:06.617Z,17.6
2023-05-05T17:58:04.770Z,17.7
2023-05-05T18:00:03.396Z,17.7
2023-05-05T18:02:05.232Z,17.7
2023-05-05T18:04:04.641Z,17.6
2023-05-05T18:06:03.061Z,17.7
2023-05-05T18:08:05.208Z,17.6
2023-05-05T18:10:05.288Z,17.6
2023-05-05T18:12:04.823Z,17.5
2023-05-05T18:14:05.118Z,17.4
2023-05-05T18:16:04.865Z,17.4
2023-05-05T18:18:05.141Z,17.4
2023-05-05T18:20:05.409Z,17.5
2023-05-05T18:24:18.473Z,17.5
2023-05-05T18:26:04.759Z,17.3
2023-05-05T18:28:05.252Z,16.6
2023-05-05T18:30:05.265Z,16.3
2023-05-05T18:32:04.433Z,16.1
2023-05-05T18:36:05.128Z,15.4
2023-05-05T18:38:05.068Z,15.1
2023-05-05T18:42:03.873Z,14.3
2023-05-05T18:44:04.697Z,13.9
2023-05-05T18:46:05.682Z,13.8
2023-05-05T18:48:04.864Z,13.7
2023-05-05T18:50:05.203Z,13.6
2023-05-05T18:52:04.108Z,13.5
2023-05-05T18:54:03.769Z,13.5
2023-05-05T18:56:04.677Z,13.4
2023-05-05T18:58:05.059Z,13.6
2023-05-05T19:00:05.607Z,13.5
2023-05-05T19:02:05.102Z,13.6
2023-05-05T19:04:05.405Z,13.6
2023-05-05T19:06:04.670Z,13.6
2023-05-05T19:08:05.308Z,13.7
2023-05-05T19:10:03.586Z,13.7
2023-05-05T19:12:03.033Z,13.7
2023-05-05T19:14:05.285Z,13.7
2023-05-05T19:16:04.195Z,13.8
2023-05-05T19:18:05.161Z,13.7
2023-05-05T19:20:05.236Z,13.6
2023-05-05T19:22:04.714Z,13.7
2023-05-05T19:24:04.980Z,13.6
2023-05-05T19:26:04.065Z,13.7
2023-05-05T19:28:04.256Z,13.4
2023-05-05T19:30:05.035Z,13.5
2023-05-05T19:32:05.524Z,13.4
2023-05-05T19:34:05.046Z,13.4
2023-05-05T19:36:03.772Z,13.4
2023-05-05T19:38:05.216Z,13.4
2023-05-05T19:40:05.432Z,13.5
2023-05-05T19:42:05.466Z,13.5
2023-05-05T19:44:05.251Z,13.5
2023-05-05T19:46:05.260Z,13.4
2023-05-05T19:48:03.161Z,13.4
2023-05-05T19:50:04.829Z,13.5
2023-05-05T19:52:05.148Z,13.6
2023-05-05T19:54:03.016Z,13.5
2023-05-05T19:56:05.624Z,13.4
2023-05-05T19:58:03.914Z,13.5
2023-05-05T20:00:04.678Z,13.4
2023-05-05T20:02:05.296Z,13.4
2023-05-05T20:04:04.782Z,13.5
2023-05-05T20:06:04.951Z,13.4
2023-05-05T20:08:04.628Z,13.4
2023-05-05T20:10:05.184Z,13.5
2023-05-05T20:14:04.308Z,13.7
2023-05-05T20:16:04.639Z,13.8
2023-05-05T20:18:05.186Z,13.9
2023-05-05T20:20:05.166Z,13.7
2023-05-05T20:22:03.442Z,13.7
2023-05-05T20:24:03.783Z,13.7
2023-05-05T20:26:04.289Z,13.8
2023-05-05T20:28:03.090Z,13.7
2023-05-05T20:30:05.192Z,13.6
2023-05-05T20:32:04.204Z,13.6
2023-05-05T20:34:04.235Z,13.6
2023-05-05T20:36:02.937Z,13.7
2023-05-05T20:38:05.391Z,13.5
2023-05-05T20:40:05.802Z,13.6
2023-05-05T20:42:03.189Z,13.7
2023-05-05T20:44:04.822Z,13.7
2023-05-05T20:46:04.345Z,13.8
2023-05-05T20:48:05.246Z,13.7
2023-05-05T20:50:05.624Z,13.7
2023-05-05T20:52:03.926Z,13.7
2023-05-05T20:54:04.888Z,13.7
2023-05-05T20:56:06.384Z,13.6
2023-05-05T21:00:06.183Z,13.6
2023-05-05T21:02:04.855Z,13.5
2023-05-05T21:04:04.363Z,13.4
2023-05-05T21:06:04.302Z,13.5
2023-05-05T21:10:04.712Z,13.5
2023-05-05T21:12:05.048Z,13.5
2023-05-05T21:14:04.288Z,13.4
2023-05-05T21:16:05.166Z,13.2
2023-05-05T21:18:03.716Z,13.2
2023-05-05T21:20:05.361Z,13.2
2023-05-05T21:22:05.308Z,13.2
2023-05-05T21:24:07.093Z,13.3
2023-05-05T21:26:05.160Z,13.2
2023-05-05T21:28:05.048Z,13.3
2023-05-05T21:30:04.826Z,13.4
2023-05-05T21:32:04.812Z,13.4
2023-05-05T21:34:05.683Z,13.4
2023-05-05T21:36:05.596Z,13.3
2023-05-05T21:38:04.183Z,13.4
2023-05-05T21:40:04.260Z,13.3
2023-05-05T21:42:05.572Z,13.2
2023-05-05T21:44:05.128Z,13.2
2023-05-05T21:46:05.602Z,13.3
2023-05-05T21:48:04.778Z,13.2
2023-05-05T21:50:05.220Z,13.1
2023-05-05T21:52:04.998Z,13.2
2023-05-05T21:54:05.124Z,13.2
2023-05-05T21:56:05.421Z,13.2
2023-05-05T21:58:05.257Z,13.1
2023-05-05T22:00:04.732Z,13
2023-05-05T22:02:04.731Z,13.1
2023-05-05T22:04:05.285Z,13.1
2023-05-05T22:06:02.911Z,13
2023-05-05T22:08:05.191Z,12.9
2023-05-05T22:10:04.058Z,13
2023-05-05T22:12:03.951Z,13
2023-05-05T22:14:05.458Z,13.1
2023-05-05T22:16:04.709Z,13.1
2023-05-05T22:18:04.297Z,13
2023-05-05T22:20:04.412Z,13
2023-05-05T22:22:04.665Z,13
2023-05-05T22:24:04.599Z,12.9
2023-05-05T22:26:04.010Z,12.9
2023-05-05T22:28:02.760Z,12.9
2023-05-05T22:30:05.399Z,12.9
2023-05-05T22:32:03.762Z,12.8
2023-05-05T22:34:04.585Z,12.9
2023-05-05T22:36:05.277Z,13
2023-05-05T22:38:04.484Z,13.1
2023-05-05T22:40:05.174Z,13.1
2023-05-05T22:42:05.152Z,13.1
2023-05-05T22:44:04.276Z,13.1
2023-05-05T22:46:05.136Z,13.1
2023-05-05T22:48:04.731Z,13.2
2023-05-05T22:50:04.438Z,13.2
2023-05-05T22:52:04.581Z,13.2
2023-05-05T22:54:04.330Z,13.1
2023-05-05T22:56:05.472Z,13.1
2023-05-05T22:58:05.393Z,13.1
2023-05-05T23:00:02.826Z,13.1
2023-05-05T23:02:05.304Z,13.2
2023-05-05T23:04:05.159Z,13.2
2023-05-05T23:06:05.071Z,13.2
2023-05-05T23:08:04.184Z,13.1
2023-05-05T23:10:05.628Z,13.1
2023-05-05T23:12:05.928Z,13.1
2023-05-05T23:14:05.265Z,13.2
2023-05-05T23:16:05.199Z,13.2
2023-05-05T23:18:03.131Z,13.1
2023-05-05T23:20:05.080Z,13.1
2023-05-05T23:22:05.545Z,13.1
2023-05-05T23:24:04.902Z,13.1
2023-05-05T23:26:03.375Z,13.1
2023-05-05T23:28:05.189Z,13
2023-05-05T23:30:05.404Z,13.1
2023-05-05T23:32:05.560Z,13.2
2023-05-05T23:34:05.590Z,13.1
2023-05-05T23:36:04.676Z,13.1
2023-05-05T23:38:04.777Z,13.2
2023-05-05T23:40:05.284Z,13
2023-05-05T23:42:05.652Z,13.1
2023-05-05T23:44:05.087Z,13.1
2023-05-05T23:46:04.309Z,13.1
2023-05-05T23:48:05.824Z,13.2
2023-05-05T23:50:04.258Z,13
2023-05-05T23:52:04.843Z,13.1
2023-05-05T23:54:02.896Z,13.1
2023-05-05T23:56:05.087Z,13.1
2023-05-05T23:58:04.979Z,13.1
